Time;durP1;ratioP1;P1;durP2;ratioP2;P2;SDS_P1;SDS_P2;PMS_P1;PMS_P2;Temp;Humidity;BMP_temperature;BMP_pressure;BME280_temperature;BME280_humidity;BME280_pressure;Samples;Min_cycle;Max_cycle;Signal;HPM_P1;HPM_P2
2022/03/21 00:01:39;;;;;;;132.45;44.93;;;;;;;;;;1730191;83;21065;-69
2022/03/21 00:04:05;;;;;;;126.80;43.73;;;;;;;;;;1730125;83;21029;-70
2022/03/21 00:06:32;;;;;;;128.10;46.50;;;;;;;;;;1730063;81;21108;-70
2022/03/21 00:09:00;;;;;;;142.70;48.68;;;;;;;;;;1730094;83;21097;-70
2022/03/21 00:11:28;;;;;;;135.28;46.75;;;;;;;;;;1729996;83;21125;-70
2022/03/21 00:13:56;;;;;;;138.88;46.60;;;;;;;;;;1730281;83;21040;-70
2022/03/21 00:16:23;;;;;;;148.02;50.48;;;;;;;;;;1730037;83;21545;-70
2022/03/21 00:18:52;;;;;;;148.78;48.58;;;;;;;;;;1730243;83;21620;-70
2022/03/21 00:21:20;;;;;;;132.15;46.23;;;;;;;;;;1730113;83;21113;-70
2022/03/21 00:23:48;;;;;;;136.55;45.60;;;;;;;;;;1730071;83;22043;-70
2022/03/21 00:26:16;;;;;;;126.62;46.10;;;;;;;;;;1730039;83;21600;-69
2022/03/21 00:28:44;;;;;;;120.45;41.20;;;;;;;;;;1729896;83;21621;-70
2022/03/21 00:31:11;;;;;;;154.45;51.28;;;;;;;;;;1730098;83;21046;-70
2022/03/21 00:33:38;;;;;;;134.20;46.70;;;;;;;;;;1730012;83;21059;-70
2022/03/21 00:36:09;;;;;;;148.25;46.73;;;;;;;;;;1730415;83;21084;-70
2022/03/21 00:38:36;;;;;;;126.27;43.65;;;;;;;;;;1729506;83;21045;-70
2022/03/21 00:41:02;;;;;;;147.70;50.45;;;;;;;;;;1730486;83;21120;-70
2022/03/21 00:43:28;;;;;;;132.60;44.42;;;;;;;;;;1730136;83;21560;-70
2022/03/21 00:45:57;;;;;;;148.93;49.18;;;;;;;;;;1730236;83;21536;-69
2022/03/21 00:48:27;;;;;;;135.78;45.45;;;;;;;;;;1730253;83;21013;-70
2022/03/21 00:50:55;;;;;;;149.90;47.83;;;;;;;;;;1730620;83;21049;-70
2022/03/21 00:53:22;;;;;;;125.53;43.92;;;;;;;;;;1730149;83;21073;-70
2022/03/21 00:55:48;;;;;;;138.57;47.33;;;;;;;;;;1730544;83;21100;-70
2022/03/21 00:58:16;;;;;;;130.43;44.45;;;;;;;;;;1730259;83;21065;-70
2022/03/21 01:03:32;;;;;;;100.65;37.75;;;;;;;;;;1722871;79;76437;-69
2022/03/21 01:05:59;;;;;;;107.97;37.88;;;;;;;;;;1709048;83;21108;-69
2022/03/21 01:08:26;;;;;;;95.28;36.10;;;;;;;;;;1696363;84;21029;-69
2022/03/21 01:10:53;;;;;;;95.32;34.33;;;;;;;;;;1696093;84;21110;-69
2022/03/21 01:13:21;;;;;;;93.95;33.92;;;;;;;;;;1696176;84;21002;-69
2022/03/21 01:15:47;;;;;;;91.67;37.38;;;;;;;;;;1696051;84;21631;-68
2022/03/21 01:18:15;;;;;;;110.78;37.60;;;;;;;;;;1696359;84;21576;-69
2022/03/21 01:20:42;;;;;;;91.10;33.98;;;;;;;;;;1696199;84;21050;-69
2022/03/21 01:23:09;;;;;;;94.05;32.95;;;;;;;;;;1696390;84;21045;-70
2022/03/21 01:25:35;;;;;;;79.45;30.95;;;;;;;;;;1696266;84;21073;-69
2022/03/21 01:28:03;;;;;;;81.30;29.95;;;;;;;;;;1696398;84;21110;-69
2022/03/21 01:30:30;;;;;;;85.28;32.35;;;;;;;;;;1696175;84;21568;-69
2022/03/21 01:32:58;;;;;;;85.83;35.55;;;;;;;;;;1696284;84;21062;-69
2022/03/21 01:35:25;;;;;;;80.25;31.10;;;;;;;;;;1696238;84;21060;-69
2022/03/21 01:37:52;;;;;;;79.55;30.82;;;;;;;;;;1696224;84;21037;-69
2022/03/21 01:40:18;;;;;;;85.47;33.30;;;;;;;;;;1696236;84;21049;-69
2022/03/21 01:42:47;;;;;;;84.87;29.52;;;;;;;;;;1696154;84;22089;-69
2022/03/21 01:45:13;;;;;;;78.70;29.87;;;;;;;;;;1696233;84;21564;-69
2022/03/21 01:47:41;;;;;;;87.57;33.00;;;;;;;;;;1696244;84;21086;-69
2022/03/21 01:50:10;;;;;;;75.72;30.48;;;;;;;;;;1696395;84;21553;-69
2022/03/21 01:52:36;;;;;;;80.05;32.38;;;;;;;;;;1696281;84;21588;-69
2022/03/21 01:57:38;;;;;;;76.47;30.55;;;;;;;;;;1680271;84;21101;-69
2022/03/21 02:00:06;;;;;;;68.33;26.68;;;;;;;;;;1696612;84;21529;-70
2022/03/21 02:02:35;;;;;;;79.53;31.23;;;;;;;;;;1695690;83;21097;-71
2022/03/21 02:05:01;;;;;;;70.62;27.48;;;;;;;;;;1683803;84;21138;-70
2022/03/21 02:07:28;;;;;;;75.10;27.25;;;;;;;;;;1681775;85;21055;-71
2022/03/21 02:09:56;;;;;;;72.53;28.95;;;;;;;;;;1681855;85;21086;-71
2022/03/21 02:12:24;;;;;;;70.20;28.77;;;;;;;;;;1681897;85;21096;-71
2022/03/21 02:14:53;;;;;;;81.45;31.17;;;;;;;;;;1681840;85;21146;-71
2022/03/21 02:17:20;;;;;;;77.92;28.67;;;;;;;;;;1682213;85;21031;-71
2022/03/21 02:19:47;;;;;;;72.15;31.85;;;;;;;;;;1681808;85;21047;-68
2022/03/21 02:22:26;;;;;;;74.37;28.92;;;;;;;;;;1681966;85;21575;-69
2022/03/21 02:24:54;;;;;;;77.55;31.97;;;;;;;;;;1681963;85;21582;-69
2022/03/21 02:27:22;;;;;;;66.02;26.77;;;;;;;;;;1682102;85;21055;-69
2022/03/21 02:29:49;;;;;;;69.67;26.23;;;;;;;;;;1656648;85;21066;-68
2022/03/21 02:32:16;;;;;;;66.72;25.72;;;;;;;;;;1682052;85;21118;-69
2022/03/21 02:34:43;;;;;;;74.05;30.12;;;;;;;;;;1681795;85;21075;-69
2022/03/21 02:37:10;;;;;;;78.17;31.12;;;;;;;;;;1681923;85;21122;-69
2022/03/21 02:39:37;;;;;;;70.12;29.50;;;;;;;;;;1681742;85;21118;-69
2022/03/21 02:42:05;;;;;;;58.02;26.40;;;;;;;;;;1682096;85;21099;-68
2022/03/21 02:44:35;;;;;;;61.13;26.97;;;;;;;;;;1681785;85;21105;-69
2022/03/21 02:47:02;;;;;;;64.90;28.60;;;;;;;;;;1682140;85;21087;-71
2022/03/21 02:49:29;;;;;;;72.05;29.77;;;;;;;;;;1681656;85;21059;-71
2022/03/21 02:51:57;;;;;;;61.68;28.85;;;;;;;;;;1681818;85;21078;-69
2022/03/21 02:54:24;;;;;;;64.35;26.70;;;;;;;;;;1681843;85;21047;-69
2022/03/21 02:56:50;;;;;;;57.30;23.67;;;;;;;;;;1656682;85;21098;-69
2022/03/21 03:01:27;;;;;;;63.52;26.23;;;;;;;;;;1802120;79;22907;-69
2022/03/21 03:03:54;;;;;;;48.92;24.32;;;;;;;;;;1742629;81;21064;-70
2022/03/21 03:06:21;;;;;;;56.53;24.30;;;;;;;;;;1728216;83;21071;-70
2022/03/21 03:08:47;;;;;;;68.75;29.05;;;;;;;;;;1728442;83;21578;-70
2022/03/21 03:11:14;;;;;;;55.15;26.07;;;;;;;;;;1728120;83;21531;-70
2022/03/21 03:13:41;;;;;;;50.03;24.63;;;;;;;;;;1728328;83;21092;-70
2022/03/21 03:16:08;;;;;;;51.75;26.25;;;;;;;;;;1728174;83;21045;-69
2022/03/21 03:18:35;;;;;;;59.63;27.20;;;;;;;;;;1728400;83;21522;-70
2022/03/21 03:21:02;;;;;;;59.08;28.47;;;;;;;;;;1728095;83;21562;-69
2022/03/21 03:23:29;;;;;;;54.67;26.93;;;;;;;;;;1728432;83;21032;-70
2022/03/21 03:26:00;;;;;;;56.95;27.13;;;;;;;;;;1728118;83;21048;-69
2022/03/21 03:28:27;;;;;;;59.08;27.25;;;;;;;;;;1727685;83;21028;-70
2022/03/21 03:30:55;;;;;;;63.87;30.32;;;;;;;;;;1728254;83;21546;-70
2022/03/21 03:33:22;;;;;;;57.80;25.97;;;;;;;;;;1728299;83;21504;-69
2022/03/21 03:35:48;;;;;;;57.03;27.07;;;;;;;;;;1728314;83;21067;-70
2022/03/21 03:38:16;;;;;;;47.60;24.67;;;;;;;;;;1728050;83;21075;-70
2022/03/21 03:40:44;;;;;;;56.50;27.82;;;;;;;;;;1727781;83;21091;-69
2022/03/21 03:43:13;;;;;;;57.95;27.58;;;;;;;;;;1728247;83;21371;-70
2022/03/21 03:45:39;;;;;;;60.88;26.77;;;;;;;;;;1727971;83;21056;-70
2022/03/21 03:48:06;;;;;;;56.15;26.95;;;;;;;;;;1728301;83;21064;-70
2022/03/21 03:50:32;;;;;;;61.33;27.50;;;;;;;;;;1728134;83;21472;-70
2022/03/21 03:52:59;;;;;;;49.70;22.80;;;;;;;;;;1728216;83;21058;-70
2022/03/21 03:55:26;;;;;;;50.45;23.38;;;;;;;;;;1728234;83;20984;-70
2022/03/21 03:57:53;;;;;;;47.95;24.80;;;;;;;;;;1728218;83;21059;-69
2022/03/21 04:00:19;;;;;;;55.08;26.23;;;;;;;;;;1721437;83;21559;-70
2022/03/21 04:05:31;;;;;;;54.15;25.55;;;;;;;;;;1712594;84;21029;-70
2022/03/21 04:07:57;;;;;;;63.50;28.70;;;;;;;;;;1712962;84;21540;-70
2022/03/21 04:10:24;;;;;;;71.10;32.08;;;;;;;;;;1712797;83;21065;-70
2022/03/21 04:12:51;;;;;;;62.65;28.55;;;;;;;;;;1712413;84;21117;-70
2022/03/21 04:15:18;;;;;;;54.90;24.63;;;;;;;;;;1712317;84;21036;-70
2022/03/21 04:17:46;;;;;;;58.02;26.40;;;;;;;;;;1712368;84;21184;-70
2022/03/21 04:20:12;;;;;;;52.08;25.43;;;;;;;;;;1712461;83;20993;-70
2022/03/21 04:22:40;;;;;;;50.65;24.27;;;;;;;;;;1712315;84;21385;-70
2022/03/21 04:25:10;;;;;;;56.13;25.05;;;;;;;;;;1712273;84;21115;-70
2022/03/21 04:27:37;;;;;;;51.48;23.83;;;;;;;;;;1712522;84;21033;-71
2022/03/21 04:30:05;;;;;;;67.60;26.55;;;;;;;;;;1712173;83;21037;-70
2022/03/21 04:32:31;;;;;;;47.65;24.20;;;;;;;;;;1712502;84;21056;-71
2022/03/21 04:34:57;;;;;;;55.23;24.75;;;;;;;;;;1712495;83;21033;-70
2022/03/21 04:37:25;;;;;;;53.70;25.48;;;;;;;;;;1712293;84;21080;-70
2022/03/21 04:39:52;;;;;;;51.48;25.95;;;;;;;;;;1712342;84;21016;-70
2022/03/21 04:42:18;;;;;;;53.05;24.85;;;;;;;;;;1712085;84;21871;-70
2022/03/21 04:44:48;;;;;;;51.28;23.40;;;;;;;;;;1712197;83;20984;-70
2022/03/21 04:47:13;;;;;;;58.60;25.00;;;;;;;;;;1712381;83;21527;-70
2022/03/21 04:49:40;;;;;;;52.45;24.50;;;;;;;;;;1690886;84;21045;-70
2022/03/21 04:52:06;;;;;;;59.03;26.82;;;;;;;;;;1712454;83;21041;-70
2022/03/21 04:54:33;;;;;;;48.05;21.55;;;;;;;;;;1712285;84;21051;-71
2022/03/21 04:57:00;;;;;;;43.45;21.23;;;;;;;;;;1712487;84;21041;-70
2022/03/21 04:59:26;;;;;;;41.73;19.52;;;;;;;;;;1712241;83;21032;-70
2022/03/21 05:01:52;;;;;;;46.55;22.58;;;;;;;;;;1711999;83;21532;-71
2022/03/21 05:04:19;;;;;;;40.40;19.65;;;;;;;;;;1712220;82;21048;-71
2022/03/21 05:06:48;;;;;;;37.80;19.73;;;;;;;;;;1712170;83;21094;-71
2022/03/21 05:09:15;;;;;;;37.63;20.08;;;;;;;;;;1712413;84;21072;-69
2022/03/21 05:11:43;;;;;;;43.65;20.80;;;;;;;;;;1711999;83;21084;-69
2022/03/21 05:14:11;;;;;;;35.45;18.35;;;;;;;;;;1712069;83;21075;-69
2022/03/21 05:16:38;;;;;;;41.25;19.12;;;;;;;;;;1712290;84;21052;-69
2022/03/21 05:19:07;;;;;;;44.45;21.77;;;;;;;;;;1712164;83;21080;-71
2022/03/21 05:21:33;;;;;;;47.65;21.33;;;;;;;;;;1712162;83;21052;-71
2022/03/21 05:32:15;;;;;;;47.95;24.92;;;;;;;;;;1712339;84;21088;-70
2022/03/21 05:37:28;;;;;;;43.73;25.35;;;;;;;;;;1712297;84;21024;-70
2022/03/21 05:42:39;;;;;;;42.08;25.10;;;;;;;;;;1712333;83;21040;-69
2022/03/21 05:45:06;;;;;;;38.45;24.77;;;;;;;;;;1712264;84;21532;-69
2022/03/21 05:48:50;;;;;;;45.20;24.85;;;;;;;;;;1712281;84;21068;-71
2022/03/21 05:50:02;;;;;;;44.63;25.48;;;;;;;;;;1709094;84;21056;-71
2022/03/21 05:52:29;;;;;;;46.85;25.62;;;;;;;;;;1712437;83;21631;-71
2022/03/21 05:54:55;;;;;;;49.77;27.22;;;;;;;;;;1712410;83;21072;-71
2022/03/21 05:57:22;;;;;;;48.23;23.80;;;;;;;;;;1712406;84;21525;-71
2022/03/21 06:02:35;;;;;;;46.92;23.92;;;;;;;;;;1712059;82;21049;-70
2022/03/21 06:05:03;;;;;;;46.55;24.10;;;;;;;;;;1712166;83;21064;-70
2022/03/21 06:07:29;;;;;;;44.08;21.15;;;;;;;;;;1712047;84;21056;-70
2022/03/21 06:09:55;;;;;;;52.90;23.57;;;;;;;;;;1712455;84;20981;-70
2022/03/21 06:12:25;;;;;;;45.12;21.20;;;;;;;;;;1712181;83;21025;-70
2022/03/21 06:14:51;;;;;;;45.95;24.90;;;;;;;;;;1712360;84;21544;-70
2022/03/21 06:17:19;;;;;;;45.12;22.07;;;;;;;;;;1712551;83;20985;-70
2022/03/21 06:19:46;;;;;;;49.50;24.85;;;;;;;;;;1712046;84;21071;-70
2022/03/21 06:22:13;;;;;;;46.98;21.73;;;;;;;;;;1712286;83;22044;-70
2022/03/21 06:24:40;;;;;;;43.17;22.17;;;;;;;;;;1712101;84;21540;-71
2022/03/21 06:27:07;;;;;;;46.63;20.17;;;;;;;;;;1712024;83;21087;-70
2022/03/21 06:29:33;;;;;;;48.05;24.00;;;;;;;;;;1712419;83;21016;-71
2022/03/21 06:32:00;;;;;;;53.78;26.60;;;;;;;;;;1712242;84;21047;-71
2022/03/21 06:34:27;;;;;;;45.03;21.55;;;;;;;;;;1711824;83;21048;-71
2022/03/21 06:36:55;;;;;;;49.18;24.63;;;;;;;;;;1712356;83;21111;-71
2022/03/21 06:39:22;;;;;;;43.80;21.50;;;;;;;;;;1712065;83;21024;-71
2022/03/21 06:41:51;;;;;;;51.00;24.55;;;;;;;;;;1712051;83;21177;-71
2022/03/21 06:44:17;;;;;;;47.40;21.93;;;;;;;;;;1711966;84;21076;-71
2022/03/21 06:46:43;;;;;;;54.80;25.72;;;;;;;;;;1712019;84;21029;-71
2022/03/21 06:49:11;;;;;;;54.13;24.63;;;;;;;;;;1711844;84;21001;-71
2022/03/21 06:51:38;;;;;;;58.58;25.08;;;;;;;;;;1711966;84;21033;-71
2022/03/21 06:54:05;;;;;;;62.67;29.37;;;;;;;;;;1711838;84;21051;-71
2022/03/21 06:56:32;;;;;;;70.72;28.05;;;;;;;;;;1712142;83;21052;-70
2022/03/21 06:58:59;;;;;;;65.90;27.77;;;;;;;;;;1711994;84;21103;-71
2022/03/21 07:01:27;;;;;;;54.67;24.90;;;;;;;;;;1715870;83;21063;-71
2022/03/21 07:03:55;;;;;;;52.27;22.05;;;;;;;;;;1719716;82;21108;-70
2022/03/21 07:06:22;;;;;;;67.05;26.97;;;;;;;;;;1719991;83;21107;-71
2022/03/21 07:08:51;;;;;;;58.75;25.02;;;;;;;;;;1720039;83;21103;-71
2022/03/21 07:11:20;;;;;;;55.88;26.12;;;;;;;;;;1719840;83;21016;-71
2022/03/21 07:13:48;;;;;;;63.15;25.35;;;;;;;;;;1719851;83;21036;-71
2022/03/21 07:16:16;;;;;;;54.95;22.40;;;;;;;;;;1719720;83;21067;-72
2022/03/21 07:18:44;;;;;;;56.88;24.25;;;;;;;;;;1719868;83;21051;-73
2022/03/21 07:21:13;;;;;;;55.28;21.35;;;;;;;;;;1719600;83;21035;-71
2022/03/21 07:23:40;;;;;;;50.78;23.65;;;;;;;;;;1719988;83;21051;-71
2022/03/21 07:26:06;;;;;;;58.35;21.82;;;;;;;;;;1720033;83;21052;-72
2022/03/21 07:28:32;;;;;;;53.35;23.83;;;;;;;;;;1720070;83;21458;-73
2022/03/21 07:30:59;;;;;;;62.88;24.87;;;;;;;;;;1720013;83;21036;-71
2022/03/21 07:33:26;;;;;;;57.83;26.20;;;;;;;;;;1720064;83;21032;-71
2022/03/21 07:35:53;;;;;;;44.80;18.17;;;;;;;;;;1719951;83;21047;-73
2022/03/21 07:38:19;;;;;;;67.80;26.42;;;;;;;;;;1720033;83;21523;-72
2022/03/21 07:40:46;;;;;;;65.87;26.80;;;;;;;;;;1719787;83;21527;-72
2022/03/21 07:43:13;;;;;;;56.98;22.13;;;;;;;;;;1719958;83;21031;-72
2022/03/21 07:48:27;;;;;;;50.30;21.20;;;;;;;;;;1719926;83;21563;-72
2022/03/21 07:50:54;;;;;;;44.93;21.10;;;;;;;;;;1720250;83;21099;-72
2022/03/21 07:53:20;;;;;;;41.83;18.27;;;;;;;;;;1719971;83;21563;-73
2022/03/21 07:55:48;;;;;;;24.87;11.33;;;;;;;;;;1719905;83;21063;-72
2022/03/21 07:58:15;;;;;;;15.63;8.18;;;;;;;;;;1719901;83;21009;-73
2022/03/21 08:00:41;;;;;;;12.82;6.35;;;;;;;;;;1719131;83;21039;-72
2022/03/21 08:03:16;;;;;;;17.95;7.28;;;;;;;;;;1712292;82;21100;-72
2022/03/21 08:05:42;;;;;;;13.18;5.97;;;;;;;;;;1712290;84;20988;-73
2022/03/21 08:08:08;;;;;;;12.35;6.20;;;;;;;;;;1712058;83;21527;-73
2022/03/21 08:10:35;;;;;;;13.75;5.72;;;;;;;;;;1712214;83;21064;-73
2022/03/21 08:13:01;;;;;;;11.68;5.90;;;;;;;;;;1712547;83;20989;-73
2022/03/21 08:15:29;;;;;;;12.35;5.22;;;;;;;;;;1712288;83;21056;-72
2022/03/21 08:17:57;;;;;;;8.15;3.90;;;;;;;;;;1712025;84;21040;-72
2022/03/21 08:20:33;;;;;;;8.15;4.53;;;;;;;;;;1711909;83;21072;-72
2022/03/21 08:22:55;;;;;;;8.28;4.00;;;;;;;;;;1711597;84;21067;-72
2022/03/21 08:25:22;;;;;;;6.58;3.80;;;;;;;;;;1712383;83;21017;-72
2022/03/21 08:27:48;;;;;;;6.58;3.65;;;;;;;;;;1712409;84;20977;-72
2022/03/21 08:30:16;;;;;;;7.25;4.10;;;;;;;;;;1712073;83;21033;-72
2022/03/21 08:32:43;;;;;;;12.35;5.17;;;;;;;;;;1712391;84;21633;-72
2022/03/21 08:35:09;;;;;;;7.83;3.90;;;;;;;;;;1712004;83;21103;-73
2022/03/21 08:37:36;;;;;;;6.05;4.00;;;;;;;;;;1712334;83;21025;-73
2022/03/21 08:40:04;;;;;;;8.00;3.70;;;;;;;;;;1711970;84;21083;-73
2022/03/21 08:42:30;;;;;;;13.65;6.25;;;;;;;;;;1712683;84;21052;-73
2022/03/21 08:44:58;;;;;;;10.10;5.22;;;;;;;;;;1712256;84;21081;-73
2022/03/21 08:47:25;;;;;;;12.33;5.50;;;;;;;;;;1712307;84;21060;-72
2022/03/21 08:49:52;;;;;;;9.48;5.00;;;;;;;;;;1712061;84;21037;-73
2022/03/21 08:52:20;;;;;;;11.85;5.08;;;;;;;;;;1712058;84;21575;-73
2022/03/21 08:54:46;;;;;;;9.80;5.00;;;;;;;;;;1712319;84;22208;-72
2022/03/21 08:57:14;;;;;;;8.18;4.42;;;;;;;;;;1712293;84;21024;-73
2022/03/21 08:59:41;;;;;;;8.38;3.83;;;;;;;;;;1712419;84;21072;-73
2022/03/21 09:02:10;;;;;;;5.65;2.98;;;;;;;;;;1712227;83;21020;-73
2022/03/21 09:04:37;;;;;;;4.85;2.52;;;;;;;;;;1712436;82;21655;-73
2022/03/21 09:07:04;;;;;;;5.12;2.70;;;;;;;;;;1712194;84;21033;-72
2022/03/21 09:09:31;;;;;;;4.37;2.45;;;;;;;;;;1712370;83;21013;-73
2022/03/21 09:11:57;;;;;;;4.62;2.98;;;;;;;;;;1712262;83;21492;-73
2022/03/21 09:14:25;;;;;;;5.97;2.42;;;;;;;;;;1712439;84;21586;-72
2022/03/21 09:16:52;;;;;;;4.53;2.40;;;;;;;;;;1712438;83;20997;-72
2022/03/21 09:19:19;;;;;;;5.92;2.80;;;;;;;;;;1712563;83;21040;-72
2022/03/21 09:21:46;;;;;;;6.28;2.60;;;;;;;;;;1712265;84;21057;-72
2022/03/21 09:24:13;;;;;;;4.83;2.52;;;;;;;;;;1712299;84;20977;-72
2022/03/21 09:26:39;;;;;;;3.20;2.10;;;;;;;;;;1712242;83;21021;-72
2022/03/21 09:29:07;;;;;;;2.50;2.00;;;;;;;;;;1711994;83;21025;-72
2022/03/21 09:31:36;;;;;;;3.67;2.30;;;;;;;;;;1712243;84;21025;-72
2022/03/21 09:34:03;;;;;;;4.37;2.62;;;;;;;;;;1711987;83;21017;-72
2022/03/21 09:36:30;;;;;;;4.35;2.30;;;;;;;;;;1712014;84;21053;-72
2022/03/21 09:38:58;;;;;;;4.67;2.20;;;;;;;;;;1712185;84;21036;-72
2022/03/21 09:41:26;;;;;;;4.33;1.95;;;;;;;;;;1712213;83;21049;-72
2022/03/21 09:43:54;;;;;;;3.10;1.70;;;;;;;;;;1712025;83;21559;-72
2022/03/21 09:46:21;;;;;;;5.65;2.17;;;;;;;;;;1712276;84;21563;-72
2022/03/21 09:48:48;;;;;;;3.72;2.30;;;;;;;;;;1712024;83;21572;-72
2022/03/21 09:51:22;;;;;;;5.08;2.25;;;;;;;;;;1712156;84;21547;-72
2022/03/21 09:53:49;;;;;;;4.03;2.33;;;;;;;;;;1712024;82;21064;-72
2022/03/21 09:56:16;;;;;;;3.22;1.98;;;;;;;;;;1712193;84;20989;-72
2022/03/21 09:58:43;;;;;;;4.47;2.15;;;;;;;;;;1711903;84;21048;-72
2022/03/21 10:01:12;;;;;;;3.12;1.80;;;;;;;;;;1712403;83;21519;-73
2022/03/21 10:03:38;;;;;;;3.92;2.37;;;;;;;;;;1719684;82;21036;-71
2022/03/21 10:06:24;;;;;;;2.90;1.80;;;;;;;;;;1719784;83;21083;-71
2022/03/21 10:08:53;;;;;;;4.12;2.30;;;;;;;;;;1719673;83;21099;-72
2022/03/21 10:11:21;;;;;;;3.77;2.10;;;;;;;;;;1719833;83;21040;-71
2022/03/21 10:13:49;;;;;;;4.17;2.22;;;;;;;;;;1719890;83;21036;-71
2022/03/21 10:16:16;;;;;;;3.70;2.17;;;;;;;;;;1719686;83;21068;-72
2022/03/21 10:18:47;;;;;;;3.92;2.00;;;;;;;;;;1719944;83;21071;-72
2022/03/21 10:21:15;;;;;;;3.12;1.87;;;;;;;;;;1718356;83;21059;-72
2022/03/21 10:23:41;;;;;;;3.80;2.08;;;;;;;;;;1720109;83;21008;-73
2022/03/21 10:26:28;;;;;;;5.65;2.20;;;;;;;;;;1719796;83;21056;-72
2022/03/21 10:28:55;;;;;;;3.72;2.33;;;;;;;;;;1719965;83;20992;-72
2022/03/21 10:31:40;;;;;;;4.17;2.08;;;;;;;;;;1719979;83;21059;-72
2022/03/21 10:34:09;;;;;;;5.47;2.70;;;;;;;;;;1719885;83;21571;-72
2022/03/21 10:36:36;;;;;;;3.83;2.47;;;;;;;;;;1719856;83;21519;-73
2022/03/21 10:39:05;;;;;;;3.92;2.40;;;;;;;;;;1720029;83;20988;-73
2022/03/21 10:41:32;;;;;;;4.17;2.42;;;;;;;;;;1719701;83;21029;-73
2022/03/21 10:43:59;;;;;;;5.40;2.55;;;;;;;;;;1719937;83;21021;-72
2022/03/21 10:46:25;;;;;;;4.15;2.40;;;;;;;;;;1691624;83;21040;-73
2022/03/21 10:48:53;;;;;;;4.37;2.30;;;;;;;;;;1719883;83;21519;-72
2022/03/21 10:51:20;;;;;;;6.00;2.80;;;;;;;;;;1718258;83;21071;-72
2022/03/21 10:53:46;;;;;;;4.10;2.10;;;;;;;;;;1719997;83;20993;-72
2022/03/21 10:56:12;;;;;;;5.58;2.67;;;;;;;;;;1719786;83;20988;-72
2022/03/21 10:58:44;;;;;;;5.05;2.47;;;;;;;;;;1719977;83;21095;-72
2022/03/21 11:01:12;;;;;;;5.20;3.05;;;;;;;;;;1719839;83;21091;-72
2022/03/21 11:03:41;;;;;;;4.55;2.58;;;;;;;;;;1719504;82;21611;-73
2022/03/21 11:06:08;;;;;;;5.25;2.80;;;;;;;;;;1719685;83;21032;-73
2022/03/21 11:08:36;;;;;;;5.08;3.00;;;;;;;;;;1719916;83;21052;-73
2022/03/21 11:11:04;;;;;;;4.60;2.42;;;;;;;;;;1719805;83;21020;-73
2022/03/21 11:13:31;;;;;;;5.37;2.58;;;;;;;;;;1719949;83;21028;-73
2022/03/21 11:16:00;;;;;;;3.52;2.47;;;;;;;;;;1719627;83;21075;-72
2022/03/21 11:18:28;;;;;;;5.00;2.60;;;;;;;;;;1719501;83;21063;-72
2022/03/21 11:20:58;;;;;;;4.70;2.60;;;;;;;;;;1719760;83;22079;-72
2022/03/21 11:23:26;;;;;;;5.00;2.42;;;;;;;;;;1719751;83;21572;-72
2022/03/21 11:25:55;;;;;;;6.25;2.98;;;;;;;;;;1719901;83;21564;-72
2022/03/21 11:28:39;;;;;;;5.10;2.72;;;;;;;;;;1719691;83;21071;-72
2022/03/21 11:31:16;;;;;;;4.10;2.72;;;;;;;;;;1720177;83;21468;-72
2022/03/21 11:33:46;;;;;;;3.77;2.42;;;;;;;;;;1720006;83;21063;-72
2022/03/21 11:36:14;;;;;;;5.45;3.00;;;;;;;;;;1718235;83;21060;-72
2022/03/21 11:38:41;;;;;;;4.90;2.70;;;;;;;;;;1719904;83;21071;-72
2022/03/21 11:41:10;;;;;;;4.78;2.47;;;;;;;;;;1719884;83;21055;-73
2022/03/21 11:43:38;;;;;;;5.15;2.80;;;;;;;;;;1691426;83;21044;-71
2022/03/21 11:46:06;;;;;;;5.28;2.75;;;;;;;;;;1719849;83;21484;-72
2022/03/21 11:48:33;;;;;;;5.85;3.00;;;;;;;;;;1717749;83;21061;-72
2022/03/21 11:51:01;;;;;;;5.03;2.80;;;;;;;;;;1720126;83;21012;-73
2022/03/21 11:53:35;;;;;;;5.67;3.02;;;;;;;;;;1720105;83;21111;-73
2022/03/21 11:56:01;;;;;;;5.53;3.22;;;;;;;;;;1720163;83;21040;-73
2022/03/21 11:58:30;;;;;;;4.72;3.12;;;;;;;;;;1720053;83;21020;-73
2022/03/21 12:01:07;;;;;;;6.60;3.08;;;;;;;;;;1719851;83;21540;-73
2022/03/21 12:03:35;;;;;;;4.50;2.47;;;;;;;;;;1719869;82;21060;-73
2022/03/21 12:06:26;;;;;;;3.70;2.72;;;;;;;;;;1719895;83;21012;-72
2022/03/21 12:08:56;;;;;;;4.97;3.25;;;;;;;;;;1719719;83;21064;-71
2022/03/21 12:11:46;;;;;;;4.92;3.08;;;;;;;;;;1719926;83;21520;-72
2022/03/21 12:14:29;;;;;;;4.92;2.90;;;;;;;;;;1719256;83;22098;-71
2022/03/21 12:17:03;;;;;;;6.62;3.20;;;;;;;;;;1719857;83;21021;-72
2022/03/21 12:19:48;;;;;;;4.87;2.92;;;;;;;;;;1719955;83;21527;-72
2022/03/21 12:22:39;;;;;;;5.75;3.05;;;;;;;;;;1720086;83;21587;-72
2022/03/21 12:25:09;;;;;;;6.40;3.40;;;;;;;;;;1719261;83;21024;-71
2022/03/21 12:27:38;;;;;;;4.87;2.85;;;;;;;;;;1719655;83;21060;-72
2022/03/21 12:30:29;;;;;;;5.25;3.10;;;;;;;;;;1720041;83;21425;-72
2022/03/21 12:33:12;;;;;;;5.70;3.00;;;;;;;;;;1719938;83;21087;-72
2022/03/21 12:35:44;;;;;;;6.28;3.27;;;;;;;;;;1720110;83;21036;-72
2022/03/21 12:38:14;;;;;;;6.40;2.98;;;;;;;;;;1719719;83;21048;-73
2022/03/21 12:40:51;;;;;;;6.12;3.40;;;;;;;;;;1719905;83;21012;-72
2022/03/21 12:43:22;;;;;;;6.08;3.40;;;;;;;;;;1719697;83;21551;-72
2022/03/21 12:45:50;;;;;;;5.47;3.35;;;;;;;;;;1719872;83;21591;-72
2022/03/21 12:48:19;;;;;;;6.62;3.25;;;;;;;;;;1719933;83;20988;-72
2022/03/21 12:50:49;;;;;;;7.17;3.33;;;;;;;;;;1719800;83;21044;-72
2022/03/21 12:53:18;;;;;;;6.35;3.17;;;;;;;;;;1719928;83;21008;-73
2022/03/21 12:55:48;;;;;;;4.22;2.92;;;;;;;;;;1720019;83;21068;-73
2022/03/21 12:58:14;;;;;;;6.08;3.42;;;;;;;;;;1720028;83;21480;-73
2022/03/21 13:00:42;;;;;;;6.22;3.33;;;;;;;;;;1719942;83;21103;-73
2022/03/21 13:03:10;;;;;;;6.30;3.33;;;;;;;;;;1719886;82;21342;-73
2022/03/21 13:11:21;;;;;;;6.40;3.25;;;;;;;;;;1720028;83;21516;-72
2022/03/21 13:13:52;;;;;;;6.45;3.40;;;;;;;;;;1719881;83;21064;-73
2022/03/21 13:16:17;;;;;;;5.50;3.42;;;;;;;;;;1719754;83;21055;-72
2022/03/21 13:18:44;;;;;;;5.28;3.52;;;;;;;;;;1720134;83;21373;-74
2022/03/21 13:21:10;;;;;;;6.47;3.87;;;;;;;;;;1719910;83;21032;-71
2022/03/21 13:23:38;;;;;;;6.00;3.77;;;;;;;;;;1719915;83;21051;-72
2022/03/21 13:26:10;;;;;;;6.47;3.75;;;;;;;;;;1719984;83;22198;-73
2022/03/21 13:28:38;;;;;;;6.15;3.35;;;;;;;;;;1719812;83;21567;-72
2022/03/21 13:31:09;;;;;;;5.87;3.60;;;;;;;;;;1720331;83;21313;-72
2022/03/21 13:33:37;;;;;;;7.47;4.37;;;;;;;;;;1720069;83;21027;-72
2022/03/21 13:36:04;;;;;;;5.85;3.62;;;;;;;;;;1719721;83;21036;-72
2022/03/21 13:38:32;;;;;;;4.87;3.25;;;;;;;;;;1720004;83;21021;-72
2022/03/21 13:41:00;;;;;;;8.88;3.75;;;;;;;;;;1719769;83;21028;-72
2022/03/21 13:43:28;;;;;;;6.53;3.85;;;;;;;;;;1719961;83;21023;-72
2022/03/21 13:45:57;;;;;;;7.33;4.17;;;;;;;;;;1719841;83;21075;-73
2022/03/21 13:48:38;;;;;;;6.80;4.37;;;;;;;;;;1719995;83;21527;-73
2022/03/21 13:51:07;;;;;;;5.95;3.50;;;;;;;;;;1719762;83;21028;-73
2022/03/21 13:53:39;;;;;;;7.47;4.42;;;;;;;;;;1719840;83;21021;-72
2022/03/21 13:56:03;;;;;;;5.87;3.20;;;;;;;;;;1719019;83;21595;-73
2022/03/21 13:58:31;;;;;;;6.28;3.65;;;;;;;;;;1719885;83;21024;-71
2022/03/21 14:00:57;;;;;;;7.42;3.90;;;;;;;;;;1719719;83;21539;-73
2022/03/21 14:03:35;;;;;;;6.92;3.92;;;;;;;;;;1719724;82;21016;-74
2022/03/21 14:06:04;;;;;;;5.47;3.50;;;;;;;;;;1719877;83;21678;-74
2022/03/21 14:08:31;;;;;;;7.90;3.45;;;;;;;;;;1720139;83;21040;-73
2022/03/21 14:11:09;;;;;;;5.08;2.80;;;;;;;;;;1719797;83;21055;-73
2022/03/21 14:13:41;;;;;;;7.60;3.77;;;;;;;;;;1692181;83;21500;-73
2022/03/21 14:16:08;;;;;;;5.33;3.10;;;;;;;;;;1719720;83;21071;-73
2022/03/21 14:18:35;;;;;;;5.47;3.45;;;;;;;;;;1720056;83;21004;-73
2022/03/21 14:21:04;;;;;;;6.62;3.55;;;;;;;;;;1720000;83;21024;-73
2022/03/21 14:23:31;;;;;;;4.47;3.00;;;;;;;;;;1719984;83;20985;-73
2022/03/21 14:28:43;;;;;;;4.97;3.15;;;;;;;;;;1719856;83;21056;-72
2022/03/21 14:31:11;;;;;;;5.97;3.70;;;;;;;;;;1719567;83;21028;-73
2022/03/21 14:33:38;;;;;;;7.28;3.30;;;;;;;;;;1719827;83;21036;-73
2022/03/21 14:36:11;;;;;;;8.63;3.65;;;;;;;;;;1718969;83;21040;-72
2022/03/21 14:38:37;;;;;;;7.58;3.92;;;;;;;;;;1719963;83;21018;-72
2022/03/21 14:41:04;;;;;;;6.15;3.80;;;;;;;;;;1719455;83;21068;-72
2022/03/21 14:43:31;;;;;;;6.95;4.08;;;;;;;;;;1719960;83;21013;-72
2022/03/21 14:45:59;;;;;;;6.70;4.45;;;;;;;;;;1719567;83;21031;-72
2022/03/21 14:48:27;;;;;;;7.53;4.03;;;;;;;;;;1719960;83;21563;-72
2022/03/21 14:50:57;;;;;;;5.85;4.15;;;;;;;;;;1719958;83;21036;-72
2022/03/21 14:53:28;;;;;;;7.30;4.58;;;;;;;;;;1719863;83;21508;-72
2022/03/21 14:55:54;;;;;;;9.05;4.60;;;;;;;;;;1720015;83;21012;-72
2022/03/21 14:58:22;;;;;;;10.58;5.53;;;;;;;;;;1719957;83;21024;-72
2022/03/21 15:00:48;;;;;;;10.55;6.00;;;;;;;;;;1719988;83;21599;-72
2022/03/21 15:03:16;;;;;;;9.85;5.53;;;;;;;;;;1716866;82;21540;-72
2022/03/21 15:05:42;;;;;;;10.55;6.05;;;;;;;;;;1712442;83;21041;-72
2022/03/21 15:08:08;;;;;;;8.68;5.50;;;;;;;;;;1712288;84;21520;-72
2022/03/21 15:10:36;;;;;;;10.30;5.78;;;;;;;;;;1712239;83;21005;-72
2022/03/21 15:13:03;;;;;;;7.28;5.08;;;;;;;;;;1712223;83;21008;-72